createdAt,value
2023-01-01T00:03:40.271Z,11.73
2023-01-01T00:18:40.449Z,13.4
2023-01-01T00:33:40.668Z,11.5
2023-01-01T00:48:40.687Z,15.94
2023-01-01T01:03:40.020Z,18.27
2023-01-01T01:18:40.737Z,19.17
2023-01-01T01:33:40.171Z,20.81
2023-01-01T01:48:39.995Z,24.17
2023-01-01T02:03:41.832Z,23.23
2023-01-01T02:33:40.530Z,20.92
2023-01-01T03:03:41.557Z,16.35
2023-01-01T03:18:39.936Z,13.63
2023-01-01T03:33:40.763Z,15.4
2023-01-01T03:48:40.452Z,13.65
2023-01-01T04:18:39.988Z,17.04
2023-01-01T04:33:40.001Z,13.84
2023-01-01T04:48:40.574Z,11.41
2023-01-01T05:03:40.650Z,8.44
2023-01-01T05:18:40.282Z,7.82
2023-01-01T05:33:39.963Z,11.85
2023-01-01T05:48:40.201Z,7.25
2023-01-01T06:18:40.033Z,64.79
2023-01-01T06:33:40.763Z,47.27
2023-01-01T06:48:40.549Z,19.68
2023-01-01T07:03:40.025Z,44.73
2023-01-01T07:18:40.163Z,15.99
2023-01-01T07:48:40.525Z,45.26
2023-01-01T08:03:40.576Z,51.13
2023-01-01T08:18:40.237Z,36.2
2023-01-01T08:33:39.924Z,53.78
2023-01-01T08:48:40.221Z,64.1
2023-01-01T09:03:40.079Z,65.49
2023-01-01T09:18:39.841Z,53.96
2023-01-01T09:33:40.149Z,53.76
2023-01-01T09:48:40.344Z,31.94
2023-01-01T10:03:40.684Z,45.4
2023-01-01T10:18:40.011Z,73.61
2023-01-01T10:33:40.528Z,57.97
2023-01-01T10:48:39.985Z,39.19
2023-01-01T11:03:40.559Z,72.87
2023-01-01T11:18:40.622Z,66.68
2023-01-01T11:33:40.358Z,43
2023-01-01T11:48:40.231Z,163.27
2023-01-01T12:03:40.596Z,75.94
2023-01-01T12:18:40.222Z,55.41
2023-01-01T12:33:40.588Z,46.89
2023-01-01T12:48:40.505Z,57.63
2023-01-01T13:03:40.473Z,52.93
2023-01-01T13:18:40.713Z,32.31
2023-01-01T13:33:40.203Z,51.98
2023-01-01T13:48:40.769Z,49.59
2023-01-01T14:03:39.884Z,45.5
2023-01-01T14:18:39.920Z,24.89
2023-01-01T14:33:40.590Z,48.18
2023-01-01T14:48:40.312Z,46.92
2023-01-01T15:03:39.891Z,61.89
2023-01-01T15:18:40.129Z,45.69
2023-01-01T15:33:40.611Z,37.99
2023-01-01T15:48:39.851Z,29.15
2023-01-01T16:03:40.088Z,32.7
2023-01-01T16:18:39.949Z,21.49
2023-01-01T16:33:39.923Z,28.3
2023-01-01T16:48:40.748Z,30.62
2023-01-01T17:03:40.369Z,46.19
2023-01-01T17:33:40.182Z,26.12
2023-01-01T17:48:40.076Z,64.76
2023-01-01T18:33:40.084Z,35.11
2023-01-01T19:03:41.502Z,35.58
2023-01-01T19:18:40.094Z,24.34
2023-01-01T19:33:45.254Z,16.16
2023-01-01T19:48:39.976Z,10.4
2023-01-01T20:18:40.343Z,9.66
2023-01-01T20:33:40.143Z,8.68
2023-01-01T20:48:40.668Z,7.28
2023-01-01T21:03:40.439Z,17.95
2023-01-01T21:18:40.710Z,6.42
2023-01-01T21:33:40.162Z,15.88
2023-01-01T21:48:39.975Z,16.6
2023-01-01T22:03:40.271Z,14.19
2023-01-01T22:33:40.186Z,11.58
2023-01-01T22:48:40.665Z,8.75
2023-01-01T23:03:40.332Z,7.34
2023-01-01T23:18:39.974Z,10.01
2023-01-01T23:33:40.522Z,6.15
2023-01-01T23:48:40.037Z,3.38
